createdAt,value
2017-10-28T00:00:21.257Z,0
2017-10-28T00:01:43.435Z,0
2017-10-28T00:03:05.610Z,0
2017-10-28T00:04:27.775Z,0
2017-10-28T00:05:49.290Z,0
2017-10-28T00:07:11.146Z,0
2017-10-28T00:08:33.007Z,0
2017-10-28T00:09:55.551Z,0
2017-10-28T00:11:17.056Z,0
2017-10-28T00:12:39.573Z,0
2017-10-28T00:14:02.127Z,0
2017-10-28T00:15:23.784Z,0
2017-10-28T00:16:46.313Z,0
2017-10-28T00:18:07.830Z,0
2017-10-28T00:19:30.020Z,0
2017-10-28T00:20:52.282Z,0
2017-10-28T00:22:14.135Z,0
2017-10-28T00:23:36.655Z,0
2017-10-28T00:24:58.526Z,0
2017-10-28T00:26:20.706Z,0
2017-10-28T00:27:42.613Z,0
2017-10-28T00:29:04.788Z,0
2017-10-28T00:30:27.019Z,0
2017-10-28T00:31:48.853Z,0
2017-10-28T00:33:10.457Z,0
2017-10-28T00:34:32.644Z,0
2017-10-28T00:35:54.474Z,0
2017-10-28T00:37:16.330Z,0
2017-10-28T00:38:38.945Z,0
2017-10-28T00:40:01.128Z,0
2017-10-28T00:41:23.483Z,0
2017-10-28T00:42:44.645Z,0
2017-10-28T00:44:06.832Z,0
2017-10-28T00:45:28.693Z,0
2017-10-28T00:46:50.895Z,0
2017-10-28T00:48:12.452Z,0
2017-10-28T00:49:34.629Z,0
2017-10-28T00:50:57.153Z,0
2017-10-28T00:52:19.065Z,0
2017-10-28T00:53:41.567Z,0
2017-10-28T00:55:04.089Z,0
2017-10-28T00:56:25.925Z,0
2017-10-28T00:57:48.097Z,0
2017-10-28T00:59:10.607Z,0
2017-10-28T01:00:32.494Z,0
2017-10-28T01:01:54.371Z,0
2017-10-28T01:03:16.806Z,0
2017-10-28T01:04:38.697Z,0
2017-10-28T01:06:00.664Z,0
2017-10-28T01:07:22.556Z,0
2017-10-28T01:08:44.408Z,0
2017-10-28T01:10:06.245Z,0
2017-10-28T01:11:28.480Z,0
2017-10-28T01:12:50.686Z,0
2017-10-28T01:14:12.537Z,0
2017-10-28T01:15:34.732Z,0
2017-10-28T01:16:55.912Z,0
2017-10-28T01:18:17.745Z,0
2017-10-28T01:19:39.563Z,0
2017-10-28T01:21:01.930Z,0
2017-10-28T01:22:23.779Z,0
2017-10-28T01:23:45.938Z,0
2017-10-28T01:25:08.189Z,0
2017-10-28T01:26:30.077Z,0
2017-10-28T01:27:51.596Z,0
2017-10-28T01:29:13.458Z,0
2017-10-28T01:30:35.645Z,0
2017-10-28T01:31:57.915Z,0
2017-10-28T01:33:19.751Z,0
2017-10-28T01:34:40.991Z,0
2017-10-28T01:36:03.845Z,0
2017-10-28T01:37:25.686Z,0
2017-10-28T01:38:47.203Z,0
2017-10-28T01:40:09.094Z,0
2017-10-28T01:41:30.946Z,0
2017-10-28T01:42:52.905Z,0
2017-10-28T01:44:15.092Z,0
2017-10-28T01:45:37.349Z,0
2017-10-28T01:46:59.568Z,0
2017-10-28T01:48:21.416Z,0
2017-10-28T01:49:43.524Z,0
2017-10-28T01:51:04.835Z,0
2017-10-28T01:52:26.676Z,0
2017-10-28T01:53:48.846Z,0
2017-10-28T01:55:11.026Z,0
2017-10-28T01:56:32.862Z,0
2017-10-28T01:57:55.345Z,0
2017-10-28T01:59:16.858Z,0
2017-10-28T02:00:39.363Z,0
2017-10-28T02:02:01.761Z,0
2017-10-28T02:03:23.998Z,0
2017-10-28T02:04:46.184Z,0
2017-10-28T02:06:08.357Z,0
2017-10-28T02:07:30.546Z,0
2017-10-28T02:08:53.025Z,0
2017-10-28T02:10:15.536Z,0
2017-10-28T02:11:37.363Z,0
2017-10-28T02:12:58.204Z,0
2017-10-28T02:14:20.894Z,0
2017-10-28T02:15:42.765Z,0
2017-10-28T02:17:04.359Z,0
2017-10-28T02:18:26.572Z,0
2017-10-28T02:19:48.800Z,0
2017-10-28T02:21:11.499Z,0
2017-10-28T02:22:33.328Z,0
2017-10-28T02:23:54.504Z,0
2017-10-28T02:25:16.663Z,0
2017-10-28T02:26:38.831Z,0
2017-10-28T02:28:00.009Z,0
2017-10-28T02:29:22.224Z,0
2017-10-28T02:30:45.101Z,0
2017-10-28T02:32:06.625Z,0
2017-10-28T02:33:28.117Z,0
2017-10-28T02:34:49.963Z,0
2017-10-28T02:36:12.154Z,0
2017-10-28T02:37:33.999Z,0
2017-10-28T02:38:55.544Z,0
2017-10-28T02:40:16.704Z,0
2017-10-28T02:41:39.079Z,0
2017-10-28T02:43:00.588Z,0
2017-10-28T02:44:22.786Z,0
2017-10-28T02:45:44.723Z,0
2017-10-28T02:47:07.269Z,0
2017-10-28T02:48:29.244Z,0
2017-10-28T02:49:51.115Z,0
2017-10-28T02:51:13.290Z,0
2017-10-28T02:52:35.556Z,0
2017-10-28T02:53:57.726Z,0
2017-10-28T02:55:19.564Z,0
2017-10-28T02:56:41.744Z,0
2017-10-28T02:58:03.825Z,0
2017-10-28T02:59:25.675Z,0
2017-10-28T03:00:47.514Z,0
2017-10-28T03:02:09.364Z,0
2017-10-28T03:03:30.880Z,0
2017-10-28T03:04:52.112Z,0
2017-10-28T03:06:13.959Z,0
2017-10-28T03:07:36.114Z,0
2017-10-28T03:08:58.572Z,0
2017-10-28T03:10:20.738Z,0
2017-10-28T03:11:42.637Z,0
2017-10-28T03:13:04.825Z,0
2017-10-28T03:14:26.644Z,0
2017-10-28T03:15:48.294Z,0
2017-10-28T03:17:10.121Z,0
2017-10-28T03:18:32.704Z,0
2017-10-28T03:19:54.784Z,0
2017-10-28T03:21:17.305Z,0
2017-10-28T03:22:39.144Z,0
2017-10-28T03:24:01.326Z,0
2017-10-28T03:25:22.822Z,0
2017-10-28T03:26:45.334Z,0
2017-10-28T03:28:07.170Z,0
2017-10-28T03:29:28.682Z,0
2017-10-28T03:30:50.696Z,0
2017-10-28T03:32:12.874Z,0
2017-10-28T03:33:34.710Z,0
2017-10-28T03:34:57.218Z,0
2017-10-28T03:36:18.774Z,0
2017-10-28T03:37:40.957Z,0
2017-10-28T03:39:02.812Z,0
2017-10-28T03:40:24.386Z,0
2017-10-28T03:41:46.906Z,0
2017-10-28T03:43:08.775Z,0
2017-10-28T03:44:30.715Z,0
2017-10-28T03:45:52.870Z,0
2017-10-28T03:47:15.037Z,0
2017-10-28T03:48:36.877Z,0
2017-10-28T03:49:58.378Z,0
2017-10-28T03:51:19.914Z,0
2017-10-28T03:52:41.782Z,0
2017-10-28T03:54:04.278Z,0
2017-10-28T03:55:25.801Z,0
2017-10-28T03:56:47.635Z,0
2017-10-28T03:58:10.258Z,0
2017-10-28T03:59:32.112Z,0
2017-10-28T04:00:54.635Z,0
2017-10-28T04:02:17.301Z,0
2017-10-28T04:03:38.838Z,0
2017-10-28T04:05:01.018Z,0
2017-10-28T04:06:22.544Z,0
2017-10-28T04:07:44.405Z,0
2017-10-28T04:09:05.923Z,0
2017-10-28T04:10:28.471Z,0
2017-10-28T04:11:49.995Z,0
2017-10-28T04:13:12.283Z,0
2017-10-28T04:14:34.037Z,0
2017-10-28T04:15:56.237Z,0
2017-10-28T04:17:17.752Z,0
2017-10-28T04:18:39.274Z,0
2017-10-28T04:20:01.520Z,0
2017-10-28T04:21:23.396Z,0
2017-10-28T04:22:45.234Z,0
2017-10-28T04:24:07.055Z,0
2017-10-28T04:25:28.891Z,0
2017-10-28T04:26:50.397Z,0
2017-10-28T04:28:12.580Z,0
2017-10-28T04:29:34.094Z,0
2017-10-28T04:30:55.934Z,0
2017-10-28T04:32:17.095Z,0
2017-10-28T04:33:39.499Z,0
2017-10-28T04:35:01.785Z,0
2017-10-28T04:36:24.219Z,0
2017-10-28T04:37:45.773Z,0
2017-10-28T04:39:07.294Z,0
2017-10-28T04:40:29.143Z,0
2017-10-28T04:41:50.994Z,0
2017-10-28T04:43:13.233Z,0
2017-10-28T04:44:35.070Z,0
2017-10-28T04:45:57.572Z,0
2017-10-28T04:47:19.849Z,0
2017-10-28T04:48:41.463Z,0
2017-10-28T04:50:02.954Z,0
2017-10-28T04:51:24.788Z,0
2017-10-28T04:52:46.623Z,0
2017-10-28T04:54:07.797Z,0
2017-10-28T04:55:30.124Z,0
2017-10-28T04:56:51.644Z,0
2017-10-28T04:58:13.865Z,0
2017-10-28T04:59:36.105Z,0
2017-10-28T05:00:57.950Z,0
2017-10-28T05:02:19.794Z,0
2017-10-28T05:03:41.997Z,0
2017-10-28T05:05:04.211Z,0
2017-10-28T05:06:26.395Z,0
2017-10-28T05:07:48.568Z,0
2017-10-28T05:09:10.750Z,0
2017-10-28T05:10:32.612Z,0
2017-10-28T05:11:54.793Z,0
2017-10-28T05:13:16.335Z,0
2017-10-28T05:14:38.539Z,0
2017-10-28T05:16:00.744Z,0
2017-10-28T05:17:22.965Z,0
2017-10-28T05:18:45.500Z,0
2017-10-28T05:20:07.428Z,0
2017-10-28T05:21:29.686Z,0
2017-10-28T05:22:51.194Z,0
2017-10-28T05:24:13.731Z,0
2017-10-28T05:25:36.397Z,0
2017-10-28T05:26:58.264Z,0
2017-10-28T05:28:19.776Z,0
2017-10-28T05:29:42.015Z,0
2017-10-28T05:31:04.824Z,0
2017-10-28T05:32:26.684Z,0
2017-10-28T05:33:48.535Z,0
2017-10-28T05:35:10.714Z,0
2017-10-28T05:36:32.890Z,0
2017-10-28T05:37:54.724Z,0
2017-10-28T05:39:16.934Z,0
2017-10-28T05:40:38.826Z,0
2017-10-28T05:42:00.704Z,0
2017-10-28T05:43:22.222Z,0
2017-10-28T05:44:44.456Z,0
2017-10-28T05:46:05.655Z,0
2017-10-28T05:47:28.166Z,0
2017-10-28T05:48:50.364Z,0
2017-10-28T05:50:12.564Z,4
2017-10-28T05:51:34.738Z,4
2017-10-28T05:52:56.909Z,4
2017-10-28T05:54:19.108Z,4
2017-10-28T05:55:41.307Z,8
2017-10-28T05:57:03.198Z,8
2017-10-28T05:58:25.037Z,12
2017-10-28T05:59:46.866Z,12
2017-10-28T06:01:09.121Z,16
2017-10-28T06:02:31.630Z,20
2017-10-28T06:03:53.474Z,28
2017-10-28T06:05:15.619Z,32
2017-10-28T06:06:38.113Z,36
2017-10-28T06:08:00.014Z,36
2017-10-28T06:09:22.245Z,40
2017-10-28T06:10:44.455Z,48
2017-10-28T06:12:06.994Z,48
2017-10-28T06:13:28.905Z,52
2017-10-28T06:14:50.773Z,64
2017-10-28T06:16:11.954Z,88
2017-10-28T06:17:33.797Z,104
2017-10-28T06:18:55.743Z,120
2017-10-28T06:20:17.266Z,136
2017-10-28T06:21:39.776Z,152
2017-10-28T06:23:01.611Z,180
2017-10-28T06:24:23.784Z,204
2017-10-28T06:25:45.765Z,240
2017-10-28T06:27:07.320Z,308
2017-10-28T06:28:28.846Z,356
2017-10-28T06:29:51.398Z,404
2017-10-28T06:31:13.973Z,420
2017-10-28T06:32:35.832Z,408
2017-10-28T06:33:57.693Z,364
2017-10-28T06:35:19.880Z,412
2017-10-28T06:36:41.833Z,520
2017-10-28T06:38:03.360Z,600
2017-10-28T06:39:25.565Z,576
2017-10-28T06:40:48.080Z,560
2017-10-28T06:42:10.520Z,596
2017-10-28T06:43:32.457Z,728
2017-10-28T06:44:54.957Z,784
2017-10-28T06:46:16.808Z,804
2017-10-28T06:47:38.767Z,880
2017-10-28T06:49:01.283Z,840
2017-10-28T06:50:23.445Z,800
2017-10-28T06:51:45.964Z,904
2017-10-28T06:53:08.544Z,928
2017-10-28T06:54:29.760Z,1104
2017-10-28T06:55:51.654Z,1412
2017-10-28T06:57:13.491Z,1716
2017-10-28T06:58:35.666Z,1856
2017-10-28T06:59:57.842Z,1744
2017-10-28T07:01:19.679Z,1716
2017-10-28T07:02:42.203Z,1708
2017-10-28T07:04:04.382Z,1696
2017-10-28T07:05:25.904Z,1644
2017-10-28T07:06:47.433Z,1764
2017-10-28T07:08:09.643Z,1892
2017-10-28T07:09:31.494Z,1652
2017-10-28T07:10:54.031Z,1440
2017-10-28T07:12:16.342Z,1736
2017-10-28T07:13:38.313Z,1988
2017-10-28T07:15:00.544Z,2256
2017-10-28T07:16:23.065Z,2488
2017-10-28T07:17:44.675Z,2564
2017-10-28T07:19:06.896Z,2504
2017-10-28T07:20:28.765Z,2432
2017-10-28T07:21:50.975Z,2352
2017-10-28T07:23:13.603Z,2512
2017-10-28T07:24:35.167Z,2524
2017-10-28T07:25:56.678Z,2608
2017-10-28T07:27:18.541Z,2764
2017-10-28T07:28:41.045Z,2860
2017-10-28T07:30:02.909Z,2788
2017-10-28T07:31:25.528Z,2580
2017-10-28T07:32:47.069Z,2652
2017-10-28T07:34:08.952Z,2916
2017-10-28T07:35:30.824Z,2904
2017-10-28T07:36:52.359Z,2900
2017-10-28T07:38:14.223Z,2784
2017-10-28T07:39:36.144Z,2284
2017-10-28T07:40:58.324Z,2172
2017-10-28T07:42:20.298Z,2608
2017-10-28T07:43:42.825Z,3252
2017-10-28T07:45:04.669Z,3768
2017-10-28T07:46:27.198Z,3888
2017-10-28T07:47:49.393Z,3648
2017-10-28T07:49:11.323Z,3340
2017-10-28T07:50:33.502Z,3196
2017-10-28T07:51:55.404Z,3260
2017-10-28T07:53:16.929Z,3408
2017-10-28T07:54:38.758Z,3368
2017-10-28T07:56:01.277Z,3220
2017-10-28T07:57:23.604Z,2888
2017-10-28T07:58:45.801Z,2796
2017-10-28T08:00:07.997Z,2948
2017-10-28T08:01:30.195Z,2364
2017-10-28T08:02:52.153Z,2180
2017-10-28T08:04:14.672Z,2176
2017-10-28T08:05:36.194Z,1548
2017-10-28T08:06:58.354Z,2308
2017-10-28T08:08:20.871Z,2812
2017-10-28T08:09:43.303Z,3388
2017-10-28T08:11:05.624Z,3392
2017-10-28T08:12:27.816Z,3452
2017-10-28T08:13:49.677Z,3544
2017-10-28T08:15:12.198Z,3772
2017-10-28T08:16:34.763Z,4072
2017-10-28T08:17:56.391Z,4260
2017-10-28T08:19:18.560Z,4256
2017-10-28T08:20:40.771Z,4172
2017-10-28T08:22:03.317Z,4272
2017-10-28T08:23:25.858Z,4156
2017-10-28T08:24:48.042Z,4220
2017-10-28T08:26:10.245Z,4516
2017-10-28T08:27:32.774Z,4576
2017-10-28T08:28:54.638Z,4320
2017-10-28T08:30:17.337Z,4556
2017-10-28T08:31:41.166Z,5032
2017-10-28T08:33:03.361Z,5360
2017-10-28T08:34:25.563Z,5416
2017-10-28T08:35:47.763Z,5584
2017-10-28T08:37:10.747Z,5916
2017-10-28T08:38:33.258Z,6212
2017-10-28T08:39:55.441Z,6252
2017-10-28T08:41:16.964Z,6548
2017-10-28T08:42:39.165Z,6792
2017-10-28T08:44:01.698Z,6676
2017-10-28T08:45:23.913Z,6648
2017-10-28T08:46:46.271Z,6508
2017-10-28T08:48:08.450Z,6112
2017-10-28T08:49:30.674Z,5500
2017-10-28T08:50:52.548Z,5572
2017-10-28T08:52:14.415Z,6768
2017-10-28T08:53:37.013Z,6896
2017-10-28T08:54:59.550Z,6632
2017-10-28T08:56:21.816Z,6536
2017-10-28T08:57:43.728Z,6436
2017-10-28T08:59:06.432Z,6444
2017-10-28T09:00:27.969Z,6532
2017-10-28T09:01:50.163Z,6392
2017-10-28T09:03:12.035Z,6228
2017-10-28T09:04:34.543Z,6080
2017-10-28T09:05:56.775Z,6764
2017-10-28T09:07:19.344Z,7640
2017-10-28T09:08:41.887Z,7572
2017-10-28T09:10:04.404Z,7684
2017-10-28T09:11:26.258Z,7752
2017-10-28T09:12:47.795Z,8048
2017-10-28T09:14:10.346Z,7876
2017-10-28T09:15:32.195Z,7328
2017-10-28T09:16:54.735Z,7964
2017-10-28T09:18:17.303Z,8124
2017-10-28T09:19:39.258Z,8024
2017-10-28T09:21:01.777Z,7900
2017-10-28T09:22:22.960Z,8128
2017-10-28T09:23:45.546Z,8244
2017-10-28T09:25:08.067Z,8060
2017-10-28T09:26:29.367Z,7056
2017-10-28T09:27:51.578Z,6848
2017-10-28T09:29:13.441Z,6972
2017-10-28T09:30:35.290Z,6508
2017-10-28T09:31:57.504Z,6484
2017-10-28T09:33:19.360Z,6508
2017-10-28T09:34:41.564Z,6456
2017-10-28T09:36:03.764Z,6132
2017-10-28T09:37:25.688Z,5744
2017-10-28T09:38:47.901Z,5968
2017-10-28T09:40:09.418Z,5848
2017-10-28T09:41:32.178Z,6160
2017-10-28T09:42:54.765Z,6428
2017-10-28T09:44:17.295Z,6544
2017-10-28T09:45:39.832Z,6432
2017-10-28T09:47:02.104Z,5100
2017-10-28T09:48:24.721Z,4372
2017-10-28T09:49:47.313Z,4676
2017-10-28T09:51:09.223Z,4800
2017-10-28T09:52:31.115Z,4944
2017-10-28T09:53:53.310Z,5152
2017-10-28T09:55:15.174Z,5084
2017-10-28T09:56:37.713Z,4232
2017-10-28T09:57:59.909Z,5116
2017-10-28T09:59:22.097Z,6760
2017-10-28T10:00:43.999Z,6452
2017-10-28T10:02:05.916Z,6248
2017-10-28T10:03:28.482Z,5240
2017-10-28T10:04:51.164Z,5024
2017-10-28T10:06:13.793Z,6436
2017-10-28T10:07:35.424Z,5992
2017-10-28T10:08:57.426Z,6700
2017-10-28T10:10:19.614Z,7392
2017-10-28T10:11:41.540Z,6712
2017-10-28T10:13:04.171Z,7080
2017-10-28T10:14:26.110Z,7532
2017-10-28T10:15:48.024Z,8256
2017-10-28T10:17:10.209Z,9492
2017-10-28T10:18:32.178Z,9096
2017-10-28T10:19:54.415Z,9524
2017-10-28T10:21:16.863Z,8756
2017-10-28T10:22:39.100Z,8712
2017-10-28T10:24:01.116Z,8444
2017-10-28T10:25:23.698Z,8548
2017-10-28T10:26:45.892Z,8552
2017-10-28T10:28:08.143Z,9388
2017-10-28T10:29:30.684Z,8784
2017-10-28T10:30:52.604Z,7904
2017-10-28T10:32:14.119Z,6700
2017-10-28T10:33:36.318Z,6840
2017-10-28T10:34:58.524Z,6488
2017-10-28T10:36:20.823Z,6244
2017-10-28T10:37:43.380Z,6276
2017-10-28T10:39:05.603Z,5220
2017-10-28T10:40:28.144Z,6452
2017-10-28T10:41:50.666Z,5048
2017-10-28T10:43:12.876Z,5484
2017-10-28T10:44:35.126Z,5624
2017-10-28T10:45:57.337Z,7036
2017-10-28T10:47:19.617Z,7204
2017-10-28T10:48:42.147Z,6312
2017-10-28T10:50:04.482Z,6092
2017-10-28T10:51:26.336Z,5896
2017-10-28T10:52:48.863Z,6872
2017-10-28T10:54:11.375Z,6444
2017-10-28T10:55:33.972Z,7372
2017-10-28T10:56:56.166Z,5608
2017-10-28T10:58:18.705Z,6464
2017-10-28T10:59:40.983Z,6632
2017-10-28T11:01:02.830Z,7340
2017-10-28T11:02:24.356Z,7360
2017-10-28T11:03:46.874Z,9176
2017-10-28T11:05:09.063Z,8832
2017-10-28T11:06:31.634Z,7768
2017-10-28T11:07:53.825Z,7152
2017-10-28T11:09:15.679Z,6548
2017-10-28T11:10:37.567Z,6864
2017-10-28T11:12:00.111Z,7168
2017-10-28T11:13:22.637Z,8560
2017-10-28T11:14:44.824Z,8136
2017-10-28T11:16:07.082Z,9432
2017-10-28T11:17:28.957Z,9996
2017-10-28T11:18:51.226Z,10220
2017-10-28T11:20:13.524Z,10476
2017-10-28T11:21:36.037Z,9184
2017-10-28T11:22:58.226Z,9808
2017-10-28T11:24:20.764Z,9996
2017-10-28T11:25:42.620Z,9852
2017-10-28T11:27:04.485Z,8588
2017-10-28T11:28:27.053Z,9240
2017-10-28T11:29:49.345Z,10944
2017-10-28T11:31:11.542Z,10784
2017-10-28T11:32:33.524Z,9084
2017-10-28T11:33:55.469Z,8108
2017-10-28T11:35:17.321Z,9816
2017-10-28T11:36:39.953Z,8152
2017-10-28T11:38:01.842Z,9956
2017-10-28T11:39:24.406Z,9500
2017-10-28T11:40:46.606Z,8196
2017-10-28T11:42:08.835Z,6388
2017-10-28T11:43:30.689Z,6896
2017-10-28T11:44:52.544Z,7372
2017-10-28T11:46:14.735Z,6620
2017-10-28T11:47:36.599Z,6224
2017-10-28T11:48:58.838Z,6232
2017-10-28T11:50:21.075Z,5732
2017-10-28T11:51:43.077Z,6604
2017-10-28T11:53:05.613Z,4812
2017-10-28T11:54:27.675Z,5124
2017-10-28T11:55:50.223Z,5264
2017-10-28T11:57:12.481Z,6808
2017-10-28T11:58:34.688Z,9252
2017-10-28T11:59:56.399Z,9188
2017-10-28T12:01:18.402Z,7640
2017-10-28T12:02:39.929Z,7516
2017-10-28T12:04:02.134Z,7452
2017-10-28T12:05:24.799Z,7100
2017-10-28T12:06:46.717Z,9372
2017-10-28T12:08:08.673Z,8316
2017-10-28T12:09:31.205Z,7320
2017-10-28T12:10:53.429Z,5684
2017-10-28T12:12:15.312Z,5304
2017-10-28T12:13:36.531Z,4964
2017-10-28T12:14:58.086Z,6216
2017-10-28T12:16:20.015Z,6656
2017-10-28T12:17:42.218Z,6792
2017-10-28T12:19:04.103Z,5536
2017-10-28T12:20:26.334Z,6772
2017-10-28T12:21:48.527Z,7992
2017-10-28T12:23:10.405Z,6988
2017-10-28T12:24:32.639Z,6440
2017-10-28T12:25:54.838Z,6304
2017-10-28T12:27:16.716Z,4772
2017-10-28T12:28:39.266Z,5316
2017-10-28T12:30:01.125Z,6792
2017-10-28T12:31:23.828Z,7072
2017-10-28T12:32:45.732Z,7272
2017-10-28T12:34:07.708Z,7732
2017-10-28T12:35:29.942Z,6928
2017-10-28T12:36:51.860Z,7504
2017-10-28T12:38:14.060Z,7692
2017-10-28T12:39:35.596Z,7208
2017-10-28T12:40:57.815Z,6920
2017-10-28T12:42:20.106Z,6976
2017-10-28T12:43:41.964Z,6172
2017-10-28T12:45:04.504Z,6324
2017-10-28T12:46:26.723Z,6032
2017-10-28T12:47:49.237Z,6656
2017-10-28T12:49:11.685Z,7404
2017-10-28T12:50:33.873Z,7160
2017-10-28T12:51:56.082Z,6044
2017-10-28T12:53:18.067Z,5524
2017-10-28T12:54:40.248Z,5104
2017-10-28T12:56:02.825Z,4896
2017-10-28T12:57:24.677Z,4908
2017-10-28T12:58:47.213Z,5948
2017-10-28T13:00:09.427Z,5940
2017-10-28T13:01:31.675Z,5252
2017-10-28T13:02:54.194Z,6412
2017-10-28T13:04:16.738Z,6788
2017-10-28T13:05:38.927Z,5032
2017-10-28T13:07:01.625Z,5400
2017-10-28T13:08:23.558Z,5360
2017-10-28T13:09:45.433Z,4600
2017-10-28T13:11:08.009Z,4436
2017-10-28T13:12:30.539Z,3880
2017-10-28T13:13:52.870Z,3612
2017-10-28T13:15:15.413Z,3076
2017-10-28T13:16:37.935Z,2992
2017-10-28T13:18:00.191Z,2772
2017-10-28T13:19:22.748Z,2960
2017-10-28T13:20:44.972Z,2496
2017-10-28T13:22:07.493Z,3656
2017-10-28T13:23:29.398Z,4604
2017-10-28T13:24:51.609Z,3988
2017-10-28T13:26:13.826Z,2940
2017-10-28T13:27:36.361Z,3312
2017-10-28T13:28:58.582Z,3144
2017-10-28T13:30:21.087Z,3316
2017-10-28T13:31:43.645Z,3180
2017-10-28T13:33:05.910Z,3116
2017-10-28T13:34:28.145Z,3068
2017-10-28T13:35:50.486Z,3076
2017-10-28T13:37:12.671Z,2728
2017-10-28T13:38:34.282Z,2844
2017-10-28T13:39:56.134Z,2248
2017-10-28T13:41:18.001Z,2472
2017-10-28T13:42:40.196Z,2464
2017-10-28T13:44:02.369Z,2064
2017-10-28T13:45:24.575Z,1944
2017-10-28T13:46:47.116Z,2144
2017-10-28T13:48:09.656Z,2184
2017-10-28T13:49:32.002Z,2028
2017-10-28T13:50:54.205Z,1840
2017-10-28T13:52:16.770Z,1500
2017-10-28T13:53:39.305Z,1336
2017-10-28T13:55:01.159Z,1352
2017-10-28T13:56:23.806Z,1536
2017-10-28T13:57:46.014Z,1452
2017-10-28T13:59:07.903Z,1320
2017-10-28T14:00:30.275Z,1700
2017-10-28T14:01:52.469Z,1968
2017-10-28T14:03:13.696Z,2304
2017-10-28T14:04:35.888Z,2032
2017-10-28T14:05:58.078Z,1968
2017-10-28T14:07:19.939Z,1640
2017-10-28T14:08:41.788Z,1608
2017-10-28T14:10:04.356Z,2156
2017-10-28T14:11:27.047Z,2132
2017-10-28T14:12:49.645Z,1768
2017-10-28T14:14:11.838Z,2164
2017-10-28T14:15:34.030Z,2012
2017-10-28T14:16:56.660Z,2500
2017-10-28T14:18:18.545Z,2624
2017-10-28T14:19:41.123Z,1976
2017-10-28T14:21:03.322Z,1844
2017-10-28T14:22:25.858Z,1976
2017-10-28T14:23:48.484Z,1980
2017-10-28T14:25:10.712Z,1344
2017-10-28T14:26:32.914Z,1228
2017-10-28T14:27:55.137Z,980
2017-10-28T14:29:17.401Z,736
2017-10-28T14:30:38.944Z,524
2017-10-28T14:32:01.586Z,520
2017-10-28T14:33:24.107Z,600
2017-10-28T14:34:46.345Z,528
2017-10-28T14:36:08.218Z,488
2017-10-28T14:37:30.448Z,472
2017-10-28T14:38:52.709Z,504
2017-10-28T14:40:14.617Z,572
2017-10-28T14:41:36.861Z,484
2017-10-28T14:42:58.749Z,668
2017-10-28T14:44:20.957Z,600
2017-10-28T14:45:42.830Z,848
2017-10-28T14:47:05.027Z,964
2017-10-28T14:48:27.602Z,908
2017-10-28T14:49:49.994Z,980
2017-10-28T14:51:12.535Z,800
2017-10-28T14:52:34.394Z,820
2017-10-28T14:53:56.269Z,940
2017-10-28T14:55:18.766Z,592
2017-10-28T14:56:40.735Z,540
2017-10-28T14:58:03.255Z,432
2017-10-28T14:59:25.501Z,448
2017-10-28T15:00:48.104Z,336
2017-10-28T15:02:09.656Z,392
2017-10-28T15:03:31.910Z,360
2017-10-28T15:04:54.485Z,420
2017-10-28T15:06:16.797Z,372
2017-10-28T15:07:39.416Z,348
2017-10-28T15:09:01.951Z,420
2017-10-28T15:10:24.197Z,492
2017-10-28T15:11:46.386Z,680
2017-10-28T15:13:08.227Z,508
2017-10-28T15:14:30.487Z,640
2017-10-28T15:15:52.388Z,528
2017-10-28T15:17:14.946Z,680
2017-10-28T15:18:37.188Z,580
2017-10-28T15:19:59.416Z,440
2017-10-28T15:21:21.611Z,460
2017-10-28T15:22:44.179Z,548
2017-10-28T15:24:06.719Z,452
2017-10-28T15:25:28.228Z,448
2017-10-28T15:26:50.848Z,444
2017-10-28T15:28:13.441Z,440
2017-10-28T15:29:35.355Z,372
2017-10-28T15:30:57.570Z,388
2017-10-28T15:32:19.097Z,368
2017-10-28T15:33:40.951Z,260
2017-10-28T15:35:03.190Z,184
2017-10-28T15:36:25.426Z,192
2017-10-28T15:37:47.621Z,220
2017-10-28T15:39:09.845Z,264
2017-10-28T15:40:32.045Z,224
2017-10-28T15:41:53.899Z,176
2017-10-28T15:43:16.430Z,244
2017-10-28T15:44:38.025Z,244
2017-10-28T15:45:59.957Z,204
2017-10-28T15:47:22.157Z,140
2017-10-28T15:48:44.686Z,176
2017-10-28T15:50:06.953Z,140
2017-10-28T15:51:29.484Z,140
2017-10-28T15:52:51.367Z,124
2017-10-28T15:54:13.557Z,144
2017-10-28T15:55:36.098Z,140
2017-10-28T15:56:58.644Z,132
2017-10-28T15:58:21.204Z,120
2017-10-28T15:59:43.426Z,92
2017-10-28T16:01:05.709Z,116
2017-10-28T16:02:28.245Z,108
2017-10-28T16:03:50.816Z,88
2017-10-28T16:05:13.022Z,84
2017-10-28T16:06:35.209Z,80
2017-10-28T16:07:57.414Z,76
2017-10-28T16:09:19.936Z,64
2017-10-28T16:10:42.393Z,64
2017-10-28T16:12:04.860Z,60
2017-10-28T16:13:27.110Z,60
2017-10-28T16:14:49.663Z,64
2017-10-28T16:16:12.245Z,60
2017-10-28T16:17:34.878Z,60
2017-10-28T16:18:57.103Z,56
2017-10-28T16:20:19.616Z,56
2017-10-28T16:21:41.487Z,52
2017-10-28T16:23:04.005Z,52
2017-10-28T16:24:26.565Z,52
2017-10-28T16:25:48.768Z,52
2017-10-28T16:27:10.981Z,52
2017-10-28T16:28:33.281Z,52
2017-10-28T16:29:55.490Z,52
2017-10-28T16:31:18.110Z,52
2017-10-28T16:32:40.128Z,52
2017-10-28T16:34:02.678Z,52
2017-10-28T16:35:24.876Z,52
2017-10-28T16:36:47.535Z,52
2017-10-28T16:38:09.408Z,52
2017-10-28T16:39:31.645Z,52
2017-10-28T16:40:53.849Z,52
2017-10-28T16:42:16.387Z,52
2017-10-28T16:43:38.931Z,48
2017-10-28T16:45:01.454Z,52
2017-10-28T16:46:23.348Z,52
2017-10-28T16:47:45.593Z,48
2017-10-28T16:49:07.458Z,0
2017-10-28T16:50:29.654Z,0
2017-10-28T16:51:51.852Z,0
2017-10-28T16:53:14.386Z,0
2017-10-28T16:54:36.244Z,0
2017-10-28T16:55:58.437Z,0
2017-10-28T16:57:20.386Z,0
2017-10-28T16:58:42.946Z,0
2017-10-28T17:00:05.538Z,0
2017-10-28T17:01:28.106Z,0
2017-10-28T17:02:50.343Z,0
2017-10-28T17:04:13.240Z,0
2017-10-28T17:05:35.465Z,0
2017-10-28T17:06:57.657Z,0
2017-10-28T17:08:20.204Z,0
2017-10-28T17:09:42.855Z,0
2017-10-28T17:11:04.605Z,0
2017-10-28T17:12:26.792Z,0
2017-10-28T17:13:48.650Z,0
2017-10-28T17:15:10.952Z,0
2017-10-28T17:16:33.486Z,0
2017-10-28T17:17:55.366Z,0
2017-10-28T17:19:17.912Z,0
2017-10-28T17:20:40.448Z,0
2017-10-28T17:22:02.327Z,0
2017-10-28T17:23:24.443Z,0
2017-10-28T17:24:46.664Z,0
2017-10-28T17:26:08.851Z,0
2017-10-28T17:27:31.446Z,0
2017-10-28T17:28:53.335Z,0
2017-10-28T17:30:15.897Z,0
2017-10-28T17:31:38.104Z,0
2017-10-28T17:33:00.639Z,0
2017-10-28T17:34:22.594Z,0
2017-10-28T17:35:45.160Z,0
2017-10-28T17:37:07.017Z,0
2017-10-28T17:38:29.644Z,0
2017-10-28T17:39:51.864Z,0
2017-10-28T17:41:14.528Z,0
2017-10-28T17:42:36.733Z,0
2017-10-28T17:43:59.364Z,0
2017-10-28T17:45:21.690Z,0
2017-10-28T17:46:43.899Z,0
2017-10-28T17:48:05.768Z,0
2017-10-28T17:49:27.981Z,0
2017-10-28T17:50:50.292Z,0
2017-10-28T17:52:12.222Z,0
2017-10-28T17:53:34.395Z,0
2017-10-28T17:54:56.607Z,0
2017-10-28T17:56:18.488Z,0
2017-10-28T17:57:41.032Z,0
2017-10-28T17:59:03.272Z,0
2017-10-28T18:00:25.141Z,0
2017-10-28T18:01:47.385Z,0
2017-10-28T18:03:09.582Z,0
2017-10-28T18:04:31.515Z,0
2017-10-28T18:05:53.706Z,0
2017-10-28T18:07:16.250Z,0
2017-10-28T18:08:38.438Z,0
2017-10-28T18:10:00.664Z,0
2017-10-28T18:11:23.253Z,0
2017-10-28T18:12:45.506Z,0
2017-10-28T18:14:07.402Z,0
2017-10-28T18:15:29.636Z,0
2017-10-28T18:16:52.255Z,0
2017-10-28T18:18:14.794Z,0
2017-10-28T18:19:36.199Z,0
2017-10-28T18:20:58.757Z,0
2017-10-28T18:22:20.994Z,0
2017-10-28T18:23:43.297Z,0
2017-10-28T18:25:05.861Z,0
2017-10-28T18:26:28.515Z,0
2017-10-28T18:27:51.203Z,0
2017-10-28T18:29:13.860Z,0
2017-10-28T18:30:36.088Z,0
2017-10-28T18:31:58.296Z,0
2017-10-28T18:33:20.654Z,0
2017-10-28T18:34:42.656Z,0
2017-10-28T18:36:04.889Z,0
2017-10-28T18:37:27.430Z,0
2017-10-28T18:38:50.002Z,0
2017-10-28T18:40:12.254Z,0
2017-10-28T18:41:34.555Z,0
2017-10-28T18:42:56.446Z,0
2017-10-28T18:44:18.962Z,0
2017-10-28T18:45:41.611Z,0
2017-10-28T18:47:03.837Z,0
2017-10-28T18:48:26.488Z,0
2017-10-28T18:49:49.031Z,68
2017-10-28T18:51:11.928Z,0
2017-10-28T18:52:34.172Z,0
2017-10-28T18:53:56.415Z,0
2017-10-28T18:55:19.049Z,0
2017-10-28T18:56:41.605Z,0
2017-10-28T18:58:03.927Z,0
2017-10-28T18:59:26.478Z,0
2017-10-28T19:00:49.014Z,0
2017-10-28T19:02:10.612Z,0
2017-10-28T19:03:33.173Z,0
2017-10-28T19:04:55.734Z,0
2017-10-28T19:06:17.968Z,44
2017-10-28T19:07:40.185Z,0
2017-10-28T19:09:02.536Z,0
2017-10-28T19:10:24.768Z,0
2017-10-28T19:11:46.998Z,0